Forside
METAR-TAF:

METAR-TAF

Lufthavne :

Clinton Municipal Airport

Clinton, Iowa, USA

Breddekreds: 41-50N, længdekreds: 090-20W, højde: 216 m

Aktuelle vejr

Denne rapport blev lavet for 5 timer og 58 minutter siden, kl. 01:56 UTC
Vind 10 kt fra sydsydvest
Temperatur 6°C
Fugtighed 70%
Tryk 1017 hPa
Sigt: 16.1 km
skyfri

METAR: KCWI 290156Z AUTO 21010KT 10SM CLR 06/01 A3003 RMK AO2 SLP180 T00560011

Tid: 01:54 (07:54 UTC)


TAF: fraværende

Vejrobservationer og prognoser fra mere end 4000 lufthavne (METAR og TAF).

De gule og røde prikker repræsenterer de meteorologiske stationer.

Flyt musen over at se navnet på stationen.

Så klik over at se vejr observationer og prognoser.

At skifte det kort: Klik på de grønne knapper med et sort kors for at zoome ind; på den grønne knap med en bindestreg for at zoome ud; eller på de grønne pile for tilstødende kort.


METAR-TAF: